Terminal Aerodrome Forecast
Issued by NWS Sioux Falls, SD

Home | Current Version | Previous Version | Text Only | Print | Product List | Glossary Off
Versions: 1 2 3 4 5 6 7 8 9 10 11 12 13 14 15 16 17 18 19 20 21 22 23 24 25 26 27 28 29 30 31 32

000
FTUS43 KFSD 252214 AAB
TAFSUX
TAF AMD
KSUX 252214Z 2522/2618 32006KT P6SM BKN012
      TEMPO 2522/2524 SCT012 OVC025
     FM260000 31004KT P6SM BKN025
     FM260200 VRB03KT P6SM SCT025 BKN150
     FM260600 18009KT P6SM SCT150
     FM261100 26010KT P6SM SKC
     FM261400 31015G22KT P6SM SKC=

USA.gov is the U.S. government's official web portal to all federal, state and local government web resources and services.